createdAt,value
2022-11-08T00:02:48.183Z,11.26
2022-11-08T00:07:08.713Z,11.23
2022-11-08T00:11:28.608Z,11.23
2022-11-08T00:15:33.303Z,11.23
2022-11-08T00:19:35.006Z,11.21
2022-11-08T00:23:36.511Z,11.21
2022-11-08T00:27:38.227Z,11.19
2022-11-08T00:31:39.738Z,11.16
2022-11-08T00:35:41.221Z,11.13
2022-11-08T00:39:42.735Z,11.08
2022-11-08T00:43:44.355Z,11.03
2022-11-08T00:47:45.841Z,11.01
2022-11-08T00:51:47.374Z,11.02
2022-11-08T00:55:48.846Z,10.99
2022-11-08T00:59:50.370Z,10.95
2022-11-08T01:03:52.043Z,10.93
2022-11-08T01:07:53.572Z,10.90
2022-11-08T01:11:55.114Z,10.90
2022-11-08T01:15:56.903Z,10.88
2022-11-08T01:19:58.394Z,10.87
2022-11-08T01:24:00.018Z,10.86
2022-11-08T01:28:01.498Z,10.83
2022-11-08T01:32:03.032Z,10.81
2022-11-08T01:36:11.814Z,10.76
2022-11-08T01:40:13.710Z,10.73
2022-11-08T01:44:17.066Z,10.72
2022-11-08T01:48:18.956Z,10.69
2022-11-08T01:52:30.108Z,10.69
2022-11-08T01:56:31.824Z,10.65
2022-11-08T02:00:35.628Z,10.63
2022-11-08T02:04:39.156Z,10.58
2022-11-08T02:08:43.139Z,10.55
2022-11-08T02:12:44.962Z,10.51
2022-11-08T02:16:46.529Z,10.49
2022-11-08T02:21:15.580Z,10.47
2022-11-08T02:25:17.114Z,10.46
2022-11-08T02:29:25.803Z,10.46
2022-11-08T02:33:27.329Z,10.46
2022-11-08T02:37:29.022Z,10.46
2022-11-08T02:41:30.517Z,10.44
2022-11-08T02:45:32.506Z,10.42
2022-11-08T02:49:34.039Z,10.39
2022-11-08T02:53:35.585Z,10.38
2022-11-08T02:57:37.091Z,10.38
2022-11-08T03:01:38.897Z,10.35
2022-11-08T03:05:40.535Z,10.32
2022-11-08T03:09:42.101Z,10.28
2022-11-08T03:13:43.608Z,10.26
2022-11-08T03:17:45.142Z,10.25
2022-11-08T03:21:46.606Z,10.22
2022-11-08T03:25:48.132Z,10.14
2022-11-08T03:29:50.022Z,10.11
2022-11-08T03:33:51.545Z,10.10
2022-11-08T03:37:55.079Z,10.10
2022-11-08T03:41:56.874Z,10.10
2022-11-08T03:45:58.349Z,10.10
2022-11-08T03:49:59.834Z,10.07
2022-11-08T03:54:01.392Z,10.06
2022-11-08T03:58:02.908Z,10.02
2022-11-08T04:02:04.502Z,9.98
2022-11-08T04:06:06.475Z,9.96
2022-11-08T04:10:09.453Z,9.95
2022-11-08T04:14:29.810Z,9.92
2022-11-08T04:18:49.719Z,9.92
2022-11-08T04:22:51.285Z,9.95
2022-11-08T04:26:52.816Z,9.93
2022-11-08T04:30:56.218Z,9.92
2022-11-08T04:34:57.684Z,9.93
2022-11-08T04:38:59.665Z,9.89
2022-11-08T04:43:01.154Z,9.88
2022-11-08T04:47:02.929Z,9.83
2022-11-08T04:51:16.927Z,9.77
2022-11-08T04:55:19.332Z,9.74
2022-11-08T04:59:21.053Z,9.73
2022-11-08T05:03:22.579Z,9.68
2022-11-08T05:07:24.177Z,9.67
2022-11-08T05:11:28.189Z,9.60
2022-11-08T05:15:29.723Z,9.58
2022-11-08T05:19:49.846Z,9.56
2022-11-08T05:23:51.730Z,9.52
2022-11-08T05:27:53.292Z,9.49
2022-11-08T05:31:54.846Z,9.48
2022-11-08T05:35:56.374Z,9.45
2022-11-08T05:39:57.900Z,9.48
2022-11-08T05:43:59.414Z,9.42
2022-11-08T05:48:03.628Z,9.41
2022-11-08T05:52:05.720Z,9.38
2022-11-08T05:56:07.867Z,9.38
2022-11-08T06:00:11.504Z,9.35
2022-11-08T06:04:13.232Z,9.32
2022-11-08T06:08:14.863Z,9.30
2022-11-08T06:12:16.378Z,9.27
2022-11-08T06:16:19.556Z,9.23
2022-11-08T06:20:21.209Z,9.20
2022-11-08T06:24:22.959Z,9.20
2022-11-08T06:28:24.737Z,9.22
2022-11-08T06:32:26.425Z,9.22
2022-11-08T06:36:28.238Z,9.23
2022-11-08T06:40:32.226Z,9.27
2022-11-08T06:44:33.858Z,9.30
2022-11-08T06:48:36.271Z,9.31
2022-11-08T06:52:38.163Z,9.37
2022-11-08T06:56:39.721Z,9.40
2022-11-08T07:00:41.207Z,9.45
2022-11-08T07:04:42.774Z,9.55
2022-11-08T07:08:44.307Z,9.60
2022-11-08T07:12:46.386Z,9.65
2022-11-08T07:16:48.115Z,9.67
2022-11-08T07:20:49.703Z,9.71
2022-11-08T07:24:51.266Z,9.75
2022-11-08T07:28:52.800Z,9.78
2022-11-08T07:32:55.807Z,9.83
2022-11-08T07:36:57.429Z,9.83
2022-11-08T07:41:00.850Z,9.86
2022-11-08T07:45:02.531Z,9.93
2022-11-08T07:49:04.028Z,9.99
2022-11-08T07:53:05.781Z,10.06
2022-11-08T07:57:07.283Z,10.13
2022-11-08T08:01:08.886Z,10.18
2022-11-08T08:05:10.791Z,10.28
2022-11-08T08:09:12.371Z,10.35
2022-11-08T08:13:14.463Z,10.42
2022-11-08T08:17:16.003Z,10.47
2022-11-08T08:21:17.793Z,10.58
2022-11-08T08:25:19.434Z,10.68
2022-11-08T08:29:21.218Z,10.78
2022-11-08T08:33:28.304Z,10.84
2022-11-08T08:37:31.001Z,10.88
2022-11-08T08:41:32.555Z,10.90
2022-11-08T08:45:35.997Z,10.90
2022-11-08T08:49:37.682Z,10.91
2022-11-08T08:53:39.308Z,11.02
2022-11-08T08:57:48.025Z,11.13
2022-11-08T09:01:49.630Z,11.21
2022-11-08T09:05:51.161Z,11.24
2022-11-08T09:09:52.747Z,11.23
2022-11-08T09:13:54.478Z,11.20
2022-11-08T09:17:57.101Z,11.20
2022-11-08T09:21:58.859Z,11.26
2022-11-08T09:26:03.597Z,11.30
2022-11-08T09:30:06.186Z,11.39
2022-11-08T09:34:07.785Z,11.51
2022-11-08T09:38:09.389Z,11.63
2022-11-08T09:42:32.463Z,11.74
2022-11-08T09:46:49.133Z,11.82
2022-11-08T09:50:53.580Z,11.90
2022-11-08T09:55:14.173Z,12.01
2022-11-08T09:59:15.628Z,12.13
2022-11-08T10:03:18.527Z,12.22
2022-11-08T10:07:29.049Z,12.31
2022-11-08T10:12:00.852Z,12.38
2022-11-08T10:16:10.280Z,12.49
2022-11-08T10:20:36.440Z,12.59
2022-11-08T10:24:56.749Z,12.71
2022-11-08T10:29:15.592Z,12.80
2022-11-08T10:33:34.449Z,12.87
2022-11-08T10:37:37.117Z,12.92
2022-11-08T10:42:00.292Z,12.91
2022-11-08T10:46:02.260Z,12.92
2022-11-08T10:50:26.073Z,12.98
2022-11-08T10:54:53.341Z,13.10
2022-11-08T10:58:54.994Z,13.17
2022-11-08T11:03:28.680Z,13.24
2022-11-08T11:07:36.337Z,13.43
2022-11-08T11:11:38.652Z,13.50
2022-11-08T11:15:51.145Z,13.61
2022-11-08T11:19:57.115Z,13.69
2022-11-08T11:24:10.213Z,13.80
2022-11-08T11:28:14.073Z,13.87
2022-11-08T11:32:24.937Z,13.99
2022-11-08T11:36:29.994Z,14.11
2022-11-08T11:40:46.437Z,14.20
2022-11-08T11:44:54.131Z,14.27
2022-11-08T11:49:01.222Z,14.31
2022-11-08T11:53:20.696Z,14.39
2022-11-08T11:57:42.891Z,14.45
2022-11-08T12:02:17.582Z,14.53
2022-11-08T12:06:25.010Z,14.59
2022-11-08T12:10:44.628Z,14.63
2022-11-08T12:15:14.162Z,14.57
2022-11-08T12:19:34.541Z,14.53
2022-11-08T12:23:54.484Z,14.56
2022-11-08T12:28:23.730Z,14.57
2022-11-08T12:32:25.157Z,14.63
2022-11-08T12:36:38.853Z,14.67
2022-11-08T12:40:48.434Z,14.72
2022-11-08T12:45:29.081Z,14.78
2022-11-08T12:49:36.570Z,14.83
2022-11-08T12:53:59.044Z,14.85
2022-11-08T12:58:05.405Z,14.85
2022-11-08T13:02:30.155Z,14.86
2022-11-08T13:06:55.209Z,14.91
2022-11-08T13:11:09.096Z,14.98
2022-11-08T13:15:20.613Z,15.13
2022-11-08T13:19:28.610Z,15.27
2022-11-08T13:23:31.488Z,15.37
2022-11-08T13:27:39.099Z,15.41
2022-11-08T13:32:05.729Z,15.38
2022-11-08T13:36:41.006Z,15.33
2022-11-08T13:41:13.872Z,15.34
2022-11-08T13:45:18.471Z,15.40
2022-11-08T13:49:22.481Z,15.43
2022-11-08T13:53:41.757Z,15.38
2022-11-08T13:57:59.497Z,15.37
2022-11-08T14:02:21.363Z,15.34
2022-11-08T14:06:35.370Z,15.34
2022-11-08T14:10:58.406Z,15.38
2022-11-08T14:15:07.171Z,15.40
2022-11-08T14:19:24.098Z,15.41
2022-11-08T14:23:29.357Z,15.43
2022-11-08T14:27:40.112Z,15.38
2022-11-08T14:31:41.791Z,15.33
2022-11-08T14:35:43.561Z,15.25
2022-11-08T14:39:46.472Z,15.22
2022-11-08T14:43:50.450Z,15.18
2022-11-08T14:48:03.105Z,15.11
2022-11-08T14:52:07.564Z,15.05
2022-11-08T14:56:24.240Z,15.03
2022-11-08T15:00:29.132Z,14.98
2022-11-08T15:04:32.062Z,14.95
2022-11-08T15:08:53.196Z,14.90
2022-11-08T15:12:55.571Z,14.85
2022-11-08T15:17:02.616Z,14.78
2022-11-08T15:21:26.404Z,14.71
2022-11-08T15:25:32.799Z,14.64
2022-11-08T15:30:09.404Z,14.66
2022-11-08T15:34:22.342Z,14.64
2022-11-08T15:38:47.023Z,14.57
2022-11-08T15:42:51.823Z,14.44
2022-11-08T15:46:55.292Z,14.35
2022-11-08T15:50:57.610Z,14.31
2022-11-08T15:54:59.162Z,14.26
2022-11-08T15:59:00.809Z,14.17
2022-11-08T16:03:02.355Z,14.08
2022-11-08T16:07:03.921Z,14.01
2022-11-08T16:11:06.202Z,13.94
2022-11-08T16:15:15.449Z,13.87
2022-11-08T16:19:23.317Z,13.81
2022-11-08T16:23:24.992Z,13.75
2022-11-08T16:27:26.503Z,13.71
2022-11-08T16:31:28.050Z,13.69
2022-11-08T16:35:29.602Z,13.66
2022-11-08T16:39:31.123Z,13.63
2022-11-08T16:43:32.862Z,13.63
2022-11-08T16:47:35.002Z,13.63
2022-11-08T16:51:36.639Z,13.63
2022-11-08T16:55:38.192Z,13.65
2022-11-08T16:59:39.707Z,13.65
2022-11-08T17:03:41.349Z,13.65
2022-11-08T17:07:42.900Z,13.65
2022-11-08T17:11:44.450Z,13.63
2022-11-08T17:15:47.186Z,13.62
2022-11-08T17:19:48.805Z,13.61
2022-11-08T17:23:51.075Z,13.57
2022-11-08T17:27:52.867Z,13.55
2022-11-08T17:31:54.444Z,13.55
2022-11-08T17:35:56.071Z,13.55
2022-11-08T17:39:57.782Z,13.54
2022-11-08T17:43:59.467Z,13.51
2022-11-08T17:48:01.061Z,13.51
2022-11-08T17:52:03.358Z,13.47
2022-11-08T17:56:05.914Z,13.44
2022-11-08T18:00:24.637Z,13.44
2022-11-08T18:04:26.271Z,13.43
2022-11-08T18:08:30.095Z,13.39
2022-11-08T18:12:31.619Z,13.38
2022-11-08T18:16:34.244Z,13.35
2022-11-08T18:20:35.939Z,13.32
2022-11-08T18:24:37.473Z,13.31
2022-11-08T18:28:39.711Z,13.29
2022-11-08T18:32:41.228Z,13.29
2022-11-08T18:36:42.819Z,13.32
2022-11-08T18:40:45.839Z,13.36
2022-11-08T18:44:47.354Z,13.38
2022-11-08T18:48:49.597Z,13.39
2022-11-08T18:52:51.080Z,13.41
2022-11-08T18:56:52.725Z,13.41
2022-11-08T19:00:55.978Z,13.43
2022-11-08T19:04:58.336Z,13.43
2022-11-08T19:09:00.042Z,13.44
2022-11-08T19:13:01.622Z,13.44
2022-11-08T19:17:03.351Z,13.46
2022-11-08T19:21:13.655Z,13.47
2022-11-08T19:25:15.472Z,13.47
2022-11-08T19:29:17.132Z,13.46
2022-11-08T19:33:19.612Z,13.41
2022-11-08T19:37:21.332Z,13.41
2022-11-08T19:41:24.867Z,13.39
2022-11-08T19:45:26.385Z,13.36
2022-11-08T19:49:28.675Z,13.35
2022-11-08T19:53:30.485Z,13.32
2022-11-08T19:57:34.934Z,13.32
2022-11-08T20:01:38.919Z,13.29
2022-11-08T20:05:40.474Z,13.25
2022-11-08T20:09:42.065Z,13.24
2022-11-08T20:13:44.176Z,13.24
2022-11-08T20:17:45.826Z,13.22
2022-11-08T20:21:48.167Z,13.24
2022-11-08T20:25:49.799Z,13.27
2022-11-08T20:29:51.772Z,13.28
2022-11-08T20:33:53.989Z,13.29
2022-11-08T20:37:58.649Z,13.29
2022-11-08T20:42:00.294Z,13.31
2022-11-08T20:46:07.536Z,13.29
2022-11-08T20:50:10.658Z,13.35
2022-11-08T20:54:12.894Z,13.38
2022-11-08T20:58:14.413Z,13.43
2022-11-08T21:02:16.077Z,13.44
2022-11-08T21:06:21.898Z,13.47
2022-11-08T21:14:44.955Z,13.50
2022-11-08T21:18:46.685Z,13.51
2022-11-08T21:22:48.171Z,13.53
2022-11-08T21:26:49.739Z,13.50
2022-11-08T21:30:51.284Z,13.50
2022-11-08T21:34:52.805Z,13.46
2022-11-08T21:38:54.415Z,13.48
2022-11-08T21:42:55.962Z,13.48
2022-11-08T21:46:57.475Z,13.47
2022-11-08T21:51:05.249Z,13.47
2022-11-08T21:55:06.911Z,13.47
2022-11-08T21:59:08.444Z,13.47
2022-11-08T22:03:11.118Z,13.47
2022-11-08T22:07:12.724Z,13.48
2022-11-08T22:11:14.218Z,13.50
2022-11-08T22:15:15.836Z,13.53
2022-11-08T22:19:17.394Z,13.54
2022-11-08T22:23:18.910Z,13.55
2022-11-08T22:27:20.391Z,13.57
2022-11-08T22:31:22.082Z,13.57
2022-11-08T22:35:23.568Z,13.54
2022-11-08T22:39:25.885Z,13.53
2022-11-08T22:43:27.446Z,13.51
2022-11-08T22:47:29.035Z,13.50
2022-11-08T22:51:30.558Z,13.53
2022-11-08T22:55:32.132Z,13.54
2022-11-08T22:59:33.714Z,13.55
2022-11-08T23:03:35.261Z,13.57
2022-11-08T23:07:36.777Z,13.57
2022-11-08T23:11:56.550Z,13.59
2022-11-08T23:16:09.801Z,13.59
2022-11-08T23:20:29.973Z,13.61
2022-11-08T23:24:32.004Z,13.59
2022-11-08T23:28:52.073Z,13.57
2022-11-08T23:32:53.569Z,13.57
2022-11-08T23:36:55.079Z,13.55
2022-11-08T23:41:17.848Z,13.57
2022-11-08T23:45:19.406Z,13.57
2022-11-08T23:49:20.937Z,13.59
2022-11-08T23:53:26.223Z,13.61
2022-11-08T23:57:27.756Z,13.62
